createdAt,value
2023-03-29T00:01:35.203Z,56.95
2023-03-29T00:04:04.706Z,56.79
2023-03-29T00:06:33.276Z,55.90
2023-03-29T00:09:01.835Z,55.00
2023-03-29T00:11:28.586Z,55.69
2023-03-29T00:13:55.489Z,56.67
2023-03-29T00:16:22.524Z,55.52
2023-03-29T00:18:49.244Z,55.85
2023-03-29T00:21:17.299Z,56.66
2023-03-29T00:23:44.260Z,56.81
2023-03-29T00:26:11.793Z,56.79
2023-03-29T00:28:38.464Z,56.70
2023-03-29T00:31:11.134Z,56.22
2023-03-29T00:33:38.973Z,55.83
2023-03-29T00:36:07.527Z,55.86
2023-03-29T00:38:34.669Z,55.48
2023-03-29T00:41:01.764Z,55.51
2023-03-29T00:43:28.500Z,56.16
2023-03-29T00:45:55.371Z,55.08
2023-03-29T00:48:26.407Z,55.28
2023-03-29T00:51:01.758Z,56.08
2023-03-29T00:53:33.486Z,56.47
2023-03-29T00:56:06.394Z,57.57
2023-03-29T00:58:49.909Z,56.21
2023-03-29T01:01:19.669Z,55.48
2023-03-29T01:03:54.407Z,56.77
2023-03-29T01:06:24.925Z,57.28
2023-03-29T01:08:55.336Z,57.19
2023-03-29T01:11:29.189Z,56.35
2023-03-29T01:13:58.042Z,55.42
2023-03-29T01:16:28.695Z,56.67
2023-03-29T01:18:58.390Z,56.31
2023-03-29T01:21:32.418Z,55.78
2023-03-29T01:24:07.163Z,56.78
2023-03-29T01:27:02.798Z,56.58
2023-03-29T01:29:47.855Z,56.57
2023-03-29T01:32:19.789Z,56.45
2023-03-29T01:34:58.755Z,56.08
2023-03-29T01:37:39.558Z,56.65
2023-03-29T01:40:06.675Z,56.79
2023-03-29T01:42:54.353Z,56.01
2023-03-29T01:45:20.998Z,56.37
2023-03-29T01:48:06.138Z,56.31
2023-03-29T01:51:04.559Z,56.31
2023-03-29T01:53:44.016Z,57.40
2023-03-29T01:56:14.658Z,56.33
2023-03-29T01:58:46.129Z,56.03
2023-03-29T02:01:17.783Z,55.90
2023-03-29T02:03:49.884Z,58.03
2023-03-29T02:06:20.720Z,57.70
2023-03-29T02:08:47.950Z,57.47
2023-03-29T02:11:14.667Z,56.46
2023-03-29T02:13:41.634Z,57.12
2023-03-29T02:16:12.266Z,57.92
2023-03-29T02:18:41.321Z,58.71
2023-03-29T02:21:10.147Z,61.10
2023-03-29T02:23:49.199Z,60.99
2023-03-29T02:26:16.157Z,59.79
2023-03-29T02:28:43.234Z,60.90
2023-03-29T02:31:29.493Z,59.93
2023-03-29T02:33:59.235Z,59.68
2023-03-29T02:36:38.291Z,59.13
2023-03-29T02:39:06.118Z,58.98
2023-03-29T02:41:33.921Z,59.20
2023-03-29T02:44:02.482Z,58.80
2023-03-29T02:46:29.162Z,57.87
2023-03-29T02:48:57.602Z,57.92
2023-03-29T02:51:29.153Z,56.71
2023-03-29T02:54:13.897Z,56.38
2023-03-29T02:56:46.198Z,58.71
2023-03-29T02:59:14.272Z,58.92
2023-03-29T03:01:44.902Z,58.23
2023-03-29T03:04:12.364Z,56.96
2023-03-29T03:06:39.218Z,56.84
2023-03-29T03:09:06.801Z,56.20
2023-03-29T03:11:34.143Z,55.85
2023-03-29T03:14:00.983Z,56.70
2023-03-29T03:16:28.114Z,56.83
2023-03-29T03:18:55.702Z,56.33
2023-03-29T03:21:22.969Z,56.82
2023-03-29T03:23:49.853Z,56.31
2023-03-29T03:26:18.224Z,56.44
2023-03-29T03:28:48.437Z,56.17
2023-03-29T03:31:15.093Z,56.57
2023-03-29T03:33:41.898Z,57.63
2023-03-29T03:36:10.294Z,56.98
2023-03-29T03:38:38.545Z,56.57
2023-03-29T03:41:07.266Z,56.24
2023-03-29T03:43:34.262Z,56.28
2023-03-29T03:46:01.405Z,56.92
2023-03-29T03:48:28.521Z,56.56
2023-03-29T03:50:58.404Z,56.86
2023-03-29T03:53:26.556Z,58.90
2023-03-29T03:55:55.996Z,58.77
2023-03-29T03:58:23.308Z,58.26
2023-03-29T04:00:50.971Z,59.07
2023-03-29T04:03:18.815Z,62.07
2023-03-29T04:05:46.794Z,59.71
2023-03-29T04:08:14.337Z,59.08
2023-03-29T04:10:41.218Z,58.94
2023-03-29T04:13:08.363Z,58.34
2023-03-29T04:15:38.662Z,58.44
2023-03-29T04:18:07.404Z,58.03
2023-03-29T04:20:34.682Z,57.64
2023-03-29T04:23:01.981Z,57.71
2023-03-29T04:25:29.056Z,57.62
2023-03-29T04:27:56.150Z,58.17
2023-03-29T04:30:22.799Z,61.62
2023-03-29T04:32:49.539Z,61.30
2023-03-29T04:35:16.621Z,60.62
2023-03-29T04:37:43.317Z,59.96
2023-03-29T04:40:14.241Z,59.31
2023-03-29T04:42:45.962Z,60.82
2023-03-29T04:45:22.584Z,59.60
2023-03-29T04:47:49.640Z,59.25
2023-03-29T04:50:16.499Z,60.73
2023-03-29T04:52:45.381Z,59.04
2023-03-29T04:55:12.518Z,59.20
2023-03-29T04:57:39.181Z,59.95
2023-03-29T05:00:14.313Z,60.50
2023-03-29T05:02:44.970Z,59.83
2023-03-29T05:05:12.307Z,59.94
2023-03-29T05:07:39.542Z,61.51
2023-03-29T05:10:07.179Z,60.32
2023-03-29T05:12:33.872Z,59.46
2023-03-29T05:15:00.556Z,60.58
2023-03-29T05:17:27.582Z,59.83
2023-03-29T05:19:54.839Z,59.07
2023-03-29T05:22:21.818Z,59.26
2023-03-29T05:24:48.654Z,59.21
2023-03-29T05:27:15.320Z,59.03
2023-03-29T05:29:41.903Z,59.92
2023-03-29T05:32:08.526Z,60.79
2023-03-29T05:34:35.363Z,60.92
2023-03-29T05:37:02.318Z,61.45
2023-03-29T05:39:29.151Z,60.39
2023-03-29T05:41:55.928Z,60.25
2023-03-29T05:44:22.594Z,60.49
2023-03-29T05:46:49.164Z,60.25
2023-03-29T05:49:16.540Z,60.85
2023-03-29T05:51:45.688Z,60.47
2023-03-29T05:54:12.475Z,60.52
2023-03-29T05:56:39.189Z,60.76
2023-03-29T05:59:05.821Z,61.61
2023-03-29T06:01:32.450Z,60.50
2023-03-29T06:03:59.124Z,61.21
2023-03-29T06:06:25.734Z,61.30
2023-03-29T06:08:52.428Z,61.03
2023-03-29T06:11:19.213Z,61.67
2023-03-29T06:13:45.968Z,61.74
2023-03-29T06:16:13.536Z,62.15
2023-03-29T06:18:41.106Z,62.87
2023-03-29T06:21:09.290Z,62.86
2023-03-29T06:23:36.961Z,63.80
2023-03-29T06:26:05.724Z,63.92
2023-03-29T06:28:32.359Z,62.86
2023-03-29T06:31:03.311Z,62.01
2023-03-29T06:33:32.422Z,61.95
2023-03-29T06:35:59.110Z,61.51
2023-03-29T06:38:28.600Z,60.90
2023-03-29T06:41:11.245Z,60.94
2023-03-29T06:43:38.144Z,60.95
2023-03-29T06:46:08.779Z,60.75
2023-03-29T06:48:35.565Z,60.54
2023-03-29T06:51:02.402Z,60.50
2023-03-29T06:53:29.274Z,59.96
2023-03-29T06:55:56.409Z,62.09
2023-03-29T06:58:23.051Z,63.73
2023-03-29T07:00:49.723Z,62.83
2023-03-29T07:03:20.651Z,62.30
2023-03-29T07:05:47.945Z,62.39
2023-03-29T07:08:16.630Z,62.93
2023-03-29T07:10:47.562Z,65.19
2023-03-29T07:13:15.716Z,65.78
2023-03-29T07:15:43.803Z,65.91
2023-03-29T07:18:12.566Z,65.64
2023-03-29T07:20:39.312Z,64.69
2023-03-29T07:23:07.826Z,63.55
2023-03-29T07:25:34.658Z,62.03
2023-03-29T07:28:01.565Z,63.25
2023-03-29T07:30:32.053Z,63.47
2023-03-29T07:32:59.512Z,62.19
2023-03-29T07:35:27.135Z,62.49
2023-03-29T07:37:55.767Z,62.08
2023-03-29T07:40:23.959Z,61.38
2023-03-29T07:42:54.267Z,61.20
2023-03-29T07:45:26.447Z,61.07
2023-03-29T07:47:58.528Z,60.83
2023-03-29T07:50:26.507Z,61.07
2023-03-29T07:52:53.785Z,61.18
2023-03-29T07:55:20.701Z,60.76
2023-03-29T07:57:49.122Z,61.26
2023-03-29T08:00:16.847Z,61.29
2023-03-29T08:02:45.478Z,61.85
2023-03-29T08:05:13.900Z,62.98
2023-03-29T08:07:42.453Z,62.21
2023-03-29T08:10:17.530Z,61.88
2023-03-29T08:12:45.804Z,61.82
2023-03-29T08:15:13.314Z,61.85
2023-03-29T08:17:41.321Z,61.92
2023-03-29T08:20:11.041Z,61.91
2023-03-29T08:22:38.240Z,61.49
2023-03-29T08:25:06.945Z,61.04
2023-03-29T08:27:34.020Z,60.51
2023-03-29T08:30:01.026Z,61.37
2023-03-29T08:32:27.731Z,61.66
2023-03-29T08:34:54.360Z,61.77
2023-03-29T08:37:21.079Z,61.61
2023-03-29T08:39:48.627Z,61.12
2023-03-29T08:42:24.678Z,60.93
2023-03-29T08:45:13.026Z,60.23
2023-03-29T08:48:01.086Z,59.68
2023-03-29T08:50:35.434Z,60.42
2023-03-29T08:53:16.089Z,60.36
2023-03-29T08:55:45.318Z,61.92
2023-03-29T08:58:26.235Z,60.54
2023-03-29T09:00:59.259Z,59.80
2023-03-29T09:03:32.083Z,59.95
2023-03-29T09:06:04.383Z,60.02
2023-03-29T09:08:31.165Z,61.29
2023-03-29T09:11:00.709Z,61.20
2023-03-29T09:13:39.724Z,61.27
2023-03-29T09:16:26.468Z,61.60
2023-03-29T09:19:31.525Z,61.33
2023-03-29T09:22:12.910Z,61.28
2023-03-29T09:25:21.381Z,61.57
2023-03-29T09:27:50.155Z,61.19
2023-03-29T09:30:25.835Z,60.68
2023-03-29T09:33:00.875Z,61.16
2023-03-29T09:35:41.200Z,60.28
2023-03-29T09:38:13.395Z,60.43
2023-03-29T09:40:46.617Z,60.07
2023-03-29T09:43:15.476Z,61.00
2023-03-29T09:45:43.799Z,60.66
2023-03-29T09:48:14.007Z,61.03
2023-03-29T09:50:43.485Z,60.26
2023-03-29T09:53:10.475Z,60.83
2023-03-29T09:55:39.666Z,60.53
2023-03-29T09:58:18.808Z,59.39
2023-03-29T10:00:46.795Z,60.32
2023-03-29T10:03:28.465Z,60.32
2023-03-29T10:05:58.848Z,59.84
2023-03-29T10:08:27.893Z,59.58
2023-03-29T10:10:57.830Z,59.14
2023-03-29T10:13:33.056Z,59.48
2023-03-29T10:16:17.166Z,59.05
2023-03-29T10:18:44.217Z,60.23
2023-03-29T10:21:15.549Z,59.26
2023-03-29T10:23:43.043Z,59.76
2023-03-29T10:26:27.945Z,58.58
2023-03-29T10:28:57.362Z,58.88
2023-03-29T10:31:25.307Z,59.92
2023-03-29T10:33:57.504Z,59.29
2023-03-29T10:36:26.968Z,59.25
2023-03-29T10:38:56.727Z,59.00
2023-03-29T10:41:24.294Z,58.35
2023-03-29T10:43:51.767Z,58.57
2023-03-29T10:46:41.633Z,58.26
2023-03-29T10:49:18.855Z,57.46
2023-03-29T10:51:47.253Z,57.35
2023-03-29T10:54:15.908Z,57.18
2023-03-29T10:57:03.343Z,57.49
2023-03-29T11:00:13.894Z,57.27
2023-03-29T11:03:21.385Z,57.04
2023-03-29T11:05:57.348Z,57.13
2023-03-29T11:08:59.104Z,57.78
2023-03-29T11:11:35.011Z,58.31
2023-03-29T11:14:14.004Z,57.76
2023-03-29T11:17:17.367Z,58.34
2023-03-29T11:19:57.601Z,57.79
2023-03-29T11:22:47.874Z,57.65
2023-03-29T11:25:32.196Z,57.66
2023-03-29T11:28:13.962Z,58.26
2023-03-29T11:30:46.071Z,58.17
2023-03-29T11:33:41.947Z,59.13
2023-03-29T11:36:25.742Z,57.58
2023-03-29T11:39:12.022Z,57.53
2023-03-29T11:41:43.412Z,56.08
2023-03-29T11:44:32.297Z,56.04
2023-03-29T11:47:14.017Z,55.31
2023-03-29T11:49:56.243Z,56.29
2023-03-29T11:52:46.575Z,57.32
2023-03-29T11:55:23.647Z,58.56
2023-03-29T11:58:02.431Z,58.29
2023-03-29T12:00:35.310Z,58.30
2023-03-29T12:03:32.836Z,58.06
2023-03-29T12:06:07.820Z,56.25
2023-03-29T12:08:55.248Z,57.39
2023-03-29T12:11:24.907Z,58.16
2023-03-29T12:14:02.497Z,58.22
2023-03-29T12:16:44.814Z,56.07
2023-03-29T12:19:20.368Z,55.83
2023-03-29T12:21:48.606Z,56.50
2023-03-29T12:24:17.576Z,56.09
2023-03-29T12:26:47.115Z,55.40
2023-03-29T12:29:34.968Z,55.72
2023-03-29T12:32:14.030Z,55.79
2023-03-29T12:35:27.730Z,55.32
2023-03-29T12:38:12.734Z,53.30
2023-03-29T12:40:45.774Z,53.92
2023-03-29T12:43:39.499Z,54.17
2023-03-29T12:46:16.337Z,54.13
2023-03-29T12:48:45.727Z,52.69
2023-03-29T12:51:23.529Z,53.94
2023-03-29T12:53:55.738Z,54.26
2023-03-29T12:56:36.320Z,54.88
2023-03-29T12:59:10.798Z,53.48
2023-03-29T13:01:41.423Z,54.17
2023-03-29T13:04:18.924Z,54.17
2023-03-29T13:06:48.302Z,53.70
2023-03-29T13:09:24.597Z,55.29
2023-03-29T13:11:58.555Z,54.30
2023-03-29T13:14:30.287Z,55.06
2023-03-29T13:17:18.090Z,53.77
2023-03-29T13:20:09.405Z,52.75
2023-03-29T13:22:36.062Z,54.24
2023-03-29T13:25:24.484Z,54.69
2023-03-29T13:28:10.673Z,53.98
2023-03-29T13:30:57.740Z,53.75
2023-03-29T13:33:38.139Z,53.77
2023-03-29T13:36:26.266Z,53.23
2023-03-29T13:38:55.366Z,53.35
2023-03-29T13:41:40.323Z,53.23
2023-03-29T13:44:21.922Z,52.73
2023-03-29T13:46:50.710Z,53.41
2023-03-29T13:49:21.291Z,52.45
2023-03-29T13:52:03.077Z,52.40
2023-03-29T13:55:28.988Z,53.15
2023-03-29T13:58:03.981Z,52.85
2023-03-29T14:00:42.018Z,52.14
2023-03-29T14:03:14.521Z,53.50
2023-03-29T14:05:56.357Z,52.97
2023-03-29T14:08:36.781Z,52.22
2023-03-29T14:11:06.994Z,51.95
2023-03-29T14:13:34.389Z,51.88
2023-03-29T14:16:10.387Z,52.66
2023-03-29T14:18:39.901Z,51.42
2023-03-29T14:21:07.227Z,52.45
2023-03-29T14:23:36.857Z,52.65
2023-03-29T14:26:10.659Z,52.25
2023-03-29T14:28:37.650Z,51.38
2023-03-29T14:31:04.463Z,52.93
2023-03-29T14:33:38.142Z,51.23
2023-03-29T14:36:05.872Z,52.69
2023-03-29T14:38:32.900Z,51.83
2023-03-29T14:41:00.930Z,52.20
2023-03-29T14:43:31.071Z,51.24
2023-03-29T14:46:01.595Z,50.69
2023-03-29T14:48:28.935Z,51.08
2023-03-29T14:50:55.808Z,51.62
2023-03-29T14:53:24.420Z,51.70
2023-03-29T14:55:53.115Z,51.67
2023-03-29T14:58:21.496Z,51.19
2023-03-29T15:00:50.999Z,51.24
2023-03-29T15:03:19.529Z,51.85
2023-03-29T15:05:54.216Z,51.88
2023-03-29T15:08:42.698Z,52.23
2023-03-29T15:11:26.586Z,52.21
2023-03-29T15:14:03.588Z,51.63
2023-03-29T15:16:30.765Z,52.72
2023-03-29T15:18:58.473Z,53.10
2023-03-29T15:21:31.965Z,54.04
2023-03-29T15:24:00.714Z,52.66
2023-03-29T15:26:38.331Z,53.31
2023-03-29T15:29:23.347Z,52.55
2023-03-29T15:31:59.113Z,53.64
2023-03-29T15:34:30.550Z,53.51
2023-03-29T15:36:57.946Z,52.55
2023-03-29T15:39:27.616Z,51.22
2023-03-29T15:41:56.842Z,50.88
2023-03-29T15:44:29.395Z,49.91
2023-03-29T15:46:57.787Z,50.84
2023-03-29T15:49:25.131Z,51.03
2023-03-29T15:51:54.063Z,52.41
2023-03-29T15:54:24.846Z,52.59
2023-03-29T15:57:01.538Z,53.11
2023-03-29T15:59:28.317Z,54.29
2023-03-29T16:01:55.302Z,54.14
2023-03-29T16:04:22.628Z,54.69
2023-03-29T16:06:52.817Z,56.58
2023-03-29T16:09:21.454Z,54.90
2023-03-29T16:11:49.161Z,53.84
2023-03-29T16:14:27.315Z,55.04
2023-03-29T16:17:00.780Z,55.15
2023-03-29T16:19:29.675Z,54.08
2023-03-29T16:21:57.027Z,53.95
2023-03-29T16:24:26.254Z,54.36
2023-03-29T16:26:55.709Z,53.15
2023-03-29T16:29:23.351Z,53.78
2023-03-29T16:31:50.516Z,53.63
2023-03-29T16:34:18.821Z,53.26
2023-03-29T16:36:49.726Z,53.57
2023-03-29T16:39:17.423Z,53.22
2023-03-29T16:41:46.896Z,53.42
2023-03-29T16:44:16.565Z,53.93
2023-03-29T16:46:43.567Z,53.22
2023-03-29T16:49:18.142Z,53.79
2023-03-29T16:51:46.774Z,53.24
2023-03-29T16:54:14.452Z,54.48
2023-03-29T16:56:41.286Z,54.14
2023-03-29T16:59:09.137Z,53.98
2023-03-29T17:01:36.513Z,53.32
2023-03-29T17:04:04.150Z,53.71
2023-03-29T17:06:33.110Z,53.81
2023-03-29T17:09:00.752Z,53.33
2023-03-29T17:11:29.012Z,53.69
2023-03-29T17:13:56.208Z,54.29
2023-03-29T17:16:23.271Z,54.43
2023-03-29T17:18:49.978Z,54.10
2023-03-29T17:21:16.863Z,55.13
2023-03-29T17:23:43.525Z,54.98
2023-03-29T17:26:10.145Z,55.16
2023-03-29T17:28:37.167Z,54.26
2023-03-29T17:31:07.104Z,54.99
2023-03-29T17:33:34.285Z,54.78
2023-03-29T17:38:29.668Z,55.49
2023-03-29T17:40:56.616Z,55.79
2023-03-29T17:43:23.398Z,56.40
2023-03-29T17:45:54.051Z,56.78
2023-03-29T17:48:21.473Z,57.50
2023-03-29T17:50:48.054Z,58.09
2023-03-29T17:53:14.678Z,57.27
2023-03-29T17:55:41.581Z,58.24
2023-03-29T17:58:09.368Z,59.94
2023-03-29T18:00:36.065Z,60.45
2023-03-29T18:03:02.821Z,61.44
2023-03-29T18:05:29.466Z,60.42
2023-03-29T18:07:56.556Z,60.89
2023-03-29T18:10:23.388Z,60.40
2023-03-29T18:12:50.194Z,60.96
2023-03-29T18:15:16.939Z,61.84
2023-03-29T18:17:43.597Z,62.12
2023-03-29T18:20:11.922Z,62.26
2023-03-29T18:22:41.371Z,62.38
2023-03-29T18:25:09.675Z,62.79
2023-03-29T18:27:38.203Z,63.46
2023-03-29T18:30:06.735Z,63.84
2023-03-29T18:32:33.729Z,63.71
2023-03-29T18:35:02.351Z,63.68
2023-03-29T18:37:29.111Z,64.07
2023-03-29T18:39:55.710Z,63.99
2023-03-29T18:42:22.372Z,63.29
2023-03-29T18:44:49.137Z,63.42
2023-03-29T18:47:15.797Z,63.54
2023-03-29T18:49:43.215Z,63.74
2023-03-29T18:52:10.139Z,65.37
2023-03-29T18:54:36.894Z,65.43
2023-03-29T18:57:03.705Z,64.59
2023-03-29T18:59:30.345Z,64.39
2023-03-29T19:01:57.130Z,64.27
2023-03-29T19:04:26.436Z,64.24
2023-03-29T19:06:54.100Z,63.79
2023-03-29T19:09:20.872Z,63.75
2023-03-29T19:11:48.106Z,63.52
2023-03-29T19:14:15.262Z,63.93
2023-03-29T19:16:42.851Z,63.84
2023-03-29T19:19:10.773Z,64.61
2023-03-29T19:21:38.571Z,65.07
2023-03-29T19:24:07.764Z,64.88
2023-03-29T19:26:34.670Z,64.83
2023-03-29T19:29:01.628Z,64.66
2023-03-29T19:31:28.512Z,64.75
2023-03-29T19:33:55.414Z,64.23
2023-03-29T19:36:22.306Z,64.56
2023-03-29T19:38:48.932Z,63.82
2023-03-29T19:41:15.966Z,63.72
2023-03-29T19:43:42.638Z,63.11
2023-03-29T19:46:11.050Z,62.94
2023-03-29T19:48:39.771Z,62.35
2023-03-29T19:51:06.993Z,61.48
2023-03-29T19:53:37.170Z,61.08
2023-03-29T19:56:07.599Z,61.78
2023-03-29T19:58:34.377Z,61.41
2023-03-29T20:01:01.279Z,61.34
2023-03-29T20:03:28.510Z,62.08
2023-03-29T20:05:56.604Z,61.51
2023-03-29T20:08:24.884Z,60.49
2023-03-29T20:11:11.559Z,60.56
2023-03-29T20:13:41.089Z,60.06
2023-03-29T20:16:13.762Z,59.76
2023-03-29T20:18:40.605Z,59.52
2023-03-29T20:21:08.779Z,59.07
2023-03-29T20:23:36.441Z,59.02
2023-03-29T20:26:03.346Z,59.10
2023-03-29T20:28:30.003Z,58.47
2023-03-29T20:30:56.694Z,58.21
2023-03-29T20:33:23.804Z,58.68
2023-03-29T20:35:50.534Z,60.29
2023-03-29T20:38:17.171Z,60.24
2023-03-29T20:40:44.929Z,59.30
2023-03-29T20:43:13.551Z,58.44
2023-03-29T20:45:52.719Z,60.11
2023-03-29T20:48:24.835Z,60.23
2023-03-29T20:50:51.841Z,60.15
2023-03-29T20:53:20.675Z,59.45
2023-03-29T20:55:47.863Z,58.52
2023-03-29T20:58:16.012Z,58.73
2023-03-29T21:00:43.603Z,59.45
2023-03-29T21:03:11.090Z,59.97
2023-03-29T21:05:38.818Z,59.05
2023-03-29T21:08:06.070Z,58.92
2023-03-29T21:10:32.854Z,60.49
2023-03-29T21:13:00.275Z,59.61
2023-03-29T21:15:28.700Z,59.77
2023-03-29T21:17:55.429Z,59.15
2023-03-29T21:20:22.174Z,60.04
2023-03-29T21:22:48.773Z,60.22
2023-03-29T21:25:15.966Z,60.17
2023-03-29T21:27:42.826Z,59.50
2023-03-29T21:30:10.864Z,58.64
2023-03-29T21:32:37.788Z,59.59
2023-03-29T21:35:04.780Z,61.19
2023-03-29T21:37:31.398Z,60.92
2023-03-29T21:39:58.017Z,59.69
2023-03-29T21:42:24.835Z,59.50
2023-03-29T21:44:51.431Z,60.46
2023-03-29T21:47:18.075Z,62.15
2023-03-29T21:49:44.650Z,61.06
2023-03-29T21:52:11.265Z,62.92
2023-03-29T21:54:37.914Z,62.34
2023-03-29T21:57:04.582Z,62.14
2023-03-29T21:59:31.255Z,61.92
2023-03-29T22:01:57.980Z,61.16
2023-03-29T22:04:35.853Z,63.13
2023-03-29T22:07:04.778Z,62.46
2023-03-29T22:09:33.383Z,61.39
2023-03-29T22:12:01.530Z,61.80
2023-03-29T22:14:31.247Z,61.06
2023-03-29T22:16:57.899Z,60.84
2023-03-29T22:19:24.538Z,60.86
2023-03-29T22:21:51.509Z,61.03
2023-03-29T22:24:19.046Z,60.86
2023-03-29T22:26:45.946Z,60.76
2023-03-29T22:29:12.519Z,60.81
2023-03-29T22:31:39.522Z,60.44
2023-03-29T22:34:06.701Z,60.86
2023-03-29T22:36:36.123Z,62.07
2023-03-29T22:39:03.786Z,61.17
2023-03-29T22:41:30.906Z,61.05
2023-03-29T22:43:58.930Z,61.41
2023-03-29T22:46:26.447Z,63.41
2023-03-29T22:48:53.354Z,63.35
2023-03-29T22:51:20.825Z,61.64
2023-03-29T22:53:47.759Z,61.26
2023-03-29T22:56:16.365Z,60.73
2023-03-29T22:58:43.042Z,61.03
2023-03-29T23:01:10.156Z,61.71
2023-03-29T23:03:37.095Z,64.48
2023-03-29T23:06:04.250Z,63.26
2023-03-29T23:08:32.697Z,61.45
2023-03-29T23:10:59.764Z,61.59
2023-03-29T23:13:29.094Z,62.80
2023-03-29T23:16:00.330Z,63.13
2023-03-29T23:18:29.555Z,64.14
2023-03-29T23:20:58.960Z,65.53
2023-03-29T23:23:27.064Z,64.83
2023-03-29T23:25:55.724Z,63.94
2023-03-29T23:28:24.970Z,62.94
2023-03-29T23:30:55.582Z,61.70
2023-03-29T23:33:22.550Z,62.12
2023-03-29T23:35:49.191Z,61.57
2023-03-29T23:38:15.844Z,61.85
2023-03-29T23:40:42.501Z,62.57
2023-03-29T23:43:09.153Z,62.53
2023-03-29T23:45:36.279Z,62.17
2023-03-29T23:48:03.807Z,62.27
2023-03-29T23:50:30.474Z,62.50
2023-03-29T23:52:58.345Z,61.61
2023-03-29T23:55:25.082Z,61.65
2023-03-29T23:57:51.804Z,61.22
